createdAt,value
2017-05-18T00:01:39.566Z,20.39
2017-05-18T00:04:10.356Z,20.34
2017-05-18T00:06:41.093Z,20.39
2017-05-18T00:09:11.856Z,20.39
2017-05-18T00:11:42.570Z,20.31
2017-05-18T00:14:13.328Z,20.28
2017-05-18T00:16:44.050Z,20.30
2017-05-18T00:19:14.905Z,20.30
2017-05-18T00:21:45.735Z,20.22
2017-05-18T00:24:16.556Z,20.15
2017-05-18T00:26:47.280Z,20.20
2017-05-18T00:29:18.056Z,20.15
2017-05-18T00:31:48.807Z,20.07
2017-05-18T00:34:19.575Z,20.09
2017-05-18T00:36:50.309Z,20.13
2017-05-18T00:39:21.084Z,20.09
2017-05-18T00:41:51.793Z,20.12
2017-05-18T00:44:22.552Z,20.06
2017-05-18T00:46:53.265Z,19.93
2017-05-18T00:49:24.015Z,19.98
2017-05-18T00:51:54.732Z,19.96
2017-05-18T00:54:25.537Z,19.94
2017-05-18T00:56:56.255Z,19.91
2017-05-18T00:59:27.004Z,19.89
2017-05-18T01:01:57.719Z,19.76
2017-05-18T01:04:28.486Z,19.84
2017-05-18T01:06:59.249Z,19.82
2017-05-18T01:09:30.055Z,19.70
2017-05-18T01:12:00.896Z,19.64
2017-05-18T01:14:31.670Z,19.66
2017-05-18T01:17:02.411Z,19.65
2017-05-18T01:19:32.807Z,19.53
2017-05-18T01:22:03.534Z,19.45
2017-05-18T01:24:35.172Z,19.45
2017-05-18T01:27:05.893Z,19.44
2017-05-18T01:29:36.728Z,19.36
2017-05-18T01:32:07.482Z,19.39
2017-05-18T01:34:37.908Z,19.37
2017-05-18T01:37:08.947Z,19.35
2017-05-18T01:39:39.351Z,19.24
2017-05-18T01:42:10.094Z,19.25
2017-05-18T01:44:40.839Z,19.13
2017-05-18T01:47:11.571Z,19.17
2017-05-18T01:49:42.351Z,19.04
2017-05-18T01:52:13.062Z,19.07
2017-05-18T01:54:43.867Z,19.03
2017-05-18T01:57:14.698Z,19.06
2017-05-18T01:59:45.491Z,19.05
2017-05-18T02:02:16.254Z,18.93
2017-05-18T02:04:47.071Z,18.95
2017-05-18T02:07:17.778Z,18.94
2017-05-18T02:09:48.562Z,18.92
2017-05-18T02:12:19.295Z,18.88
2017-05-18T02:14:50.077Z,18.85
2017-05-18T02:17:20.810Z,18.77
2017-05-18T02:19:51.602Z,18.82
2017-05-18T02:22:22.398Z,18.76
2017-05-18T02:24:53.989Z,18.80
2017-05-18T02:27:24.695Z,18.71
2017-05-18T02:29:56.178Z,18.72
2017-05-18T02:32:26.928Z,18.68
2017-05-18T02:34:57.481Z,18.60
2017-05-18T02:37:28.193Z,18.52
2017-05-18T02:39:58.944Z,18.49
2017-05-18T02:42:29.726Z,18.60
2017-05-18T02:45:00.491Z,18.59
2017-05-18T02:47:31.198Z,18.52
2017-05-18T02:50:01.951Z,18.51
2017-05-18T02:52:32.670Z,18.38
2017-05-18T02:55:03.828Z,18.45
2017-05-18T02:57:34.580Z,18.44
2017-05-18T03:00:04.971Z,18.32
2017-05-18T03:02:35.697Z,18.33
2017-05-18T03:05:06.494Z,18.35
2017-05-18T03:07:37.204Z,18.26
2017-05-18T03:10:08.310Z,18.27
2017-05-18T03:12:39.078Z,18.20
2017-05-18T03:15:09.893Z,18.21
2017-05-18T03:17:40.630Z,18.07
2017-05-18T03:20:11.982Z,18.12
2017-05-18T03:22:42.746Z,18.15
2017-05-18T03:25:13.544Z,18.18
2017-05-18T03:27:44.291Z,18.18
2017-05-18T03:30:15.127Z,18.20
2017-05-18T03:32:45.937Z,18.12
2017-05-18T03:35:16.845Z,18.22
2017-05-18T03:37:47.410Z,18.18
2017-05-18T03:40:18.187Z,18.14
2017-05-18T03:42:49.395Z,18.15
2017-05-18T03:45:20.189Z,18.22
2017-05-18T03:47:50.927Z,18.19
2017-05-18T03:50:21.691Z,18.28
2017-05-18T03:52:52.423Z,18.30
2017-05-18T03:55:23.256Z,18.26
2017-05-18T03:57:56.556Z,18.25
2017-05-18T04:00:27.375Z,18.29
2017-05-18T04:02:58.106Z,18.37
2017-05-18T04:05:29.321Z,18.43
2017-05-18T04:08:02.746Z,18.47
2017-05-18T04:10:35.331Z,18.48
2017-05-18T04:13:07.535Z,18.49
2017-05-18T04:15:38.331Z,18.44
2017-05-18T04:18:09.133Z,18.49
2017-05-18T04:20:41.829Z,18.55
2017-05-18T04:23:28.954Z,18.54
2017-05-18T04:26:09.778Z,18.64
2017-05-18T04:28:44.286Z,18.68
2017-05-18T04:34:36.409Z,18.87
2017-05-18T04:37:11.647Z,18.97
2017-05-18T04:39:45.500Z,19.06
2017-05-18T04:42:20.191Z,19.02
2017-05-18T04:44:55.562Z,19.16
2017-05-18T04:47:30.028Z,19.22
2017-05-18T04:50:04.011Z,19.21
2017-05-18T04:52:37.448Z,19.19
2017-05-18T04:55:11.382Z,19.24
2017-05-18T04:57:46.987Z,19.27
2017-05-18T05:00:20.355Z,19.17
2017-05-18T05:02:54.411Z,19.18
2017-05-18T05:05:25.848Z,19.20
2017-05-18T05:07:56.679Z,19.23
2017-05-18T05:10:27.520Z,19.26
2017-05-18T05:12:58.303Z,19.32
2017-05-18T05:15:29.109Z,19.34
2017-05-18T05:17:59.976Z,19.32
2017-05-18T05:20:30.785Z,19.31
2017-05-18T05:23:01.621Z,19.32
2017-05-18T05:25:32.453Z,19.36
2017-05-18T05:28:03.336Z,19.37
2017-05-18T05:30:34.135Z,19.41
2017-05-18T05:33:05.766Z,19.44
2017-05-18T05:35:36.996Z,19.44
2017-05-18T05:38:07.831Z,19.46
2017-05-18T05:40:38.657Z,19.51
2017-05-18T05:43:09.524Z,19.56
2017-05-18T05:45:40.327Z,19.62
2017-05-18T05:48:11.154Z,19.62
2017-05-18T05:50:42.042Z,19.69
2017-05-18T05:53:12.935Z,19.73
2017-05-18T05:55:43.701Z,19.67
2017-05-18T05:58:14.574Z,19.67
2017-05-18T06:00:45.342Z,19.72
2017-05-18T06:03:16.182Z,19.68
2017-05-18T06:05:47.068Z,19.68
2017-05-18T06:08:17.876Z,19.66
2017-05-18T06:10:48.739Z,19.67
2017-05-18T06:13:19.575Z,19.73
2017-05-18T06:15:50.377Z,19.83
2017-05-18T06:18:21.213Z,19.85
2017-05-18T06:20:52.023Z,19.89
2017-05-18T06:23:22.842Z,19.97
2017-05-18T06:25:53.602Z,20.12
2017-05-18T06:28:24.439Z,20.14
2017-05-18T06:30:55.220Z,20.25
2017-05-18T06:33:26.059Z,20.21
2017-05-18T06:35:57.838Z,20.27
2017-05-18T06:38:30.247Z,20.28
2017-05-18T06:41:03.916Z,20.34
2017-05-18T06:43:35.420Z,20.42
2017-05-18T06:46:06.186Z,20.48
2017-05-18T06:48:37.065Z,20.46
2017-05-18T06:51:07.874Z,20.55
2017-05-18T06:53:38.753Z,20.59
2017-05-18T06:56:09.564Z,20.73
2017-05-18T06:58:40.421Z,20.83
2017-05-18T07:01:11.214Z,20.93
2017-05-18T07:03:42.110Z,21.06
2017-05-18T07:06:12.892Z,21.18
2017-05-18T07:08:43.724Z,21.27
2017-05-18T07:11:14.500Z,21.45
2017-05-18T07:13:45.325Z,21.51
2017-05-18T07:16:16.093Z,21.62
2017-05-18T07:18:47.095Z,21.79
2017-05-18T07:21:17.892Z,21.88
2017-05-18T07:23:48.703Z,21.96
2017-05-18T07:26:19.510Z,22.03
2017-05-18T07:28:50.345Z,22.15
2017-05-18T07:31:21.108Z,22.19
2017-05-18T07:33:51.910Z,22.19
2017-05-18T07:36:22.688Z,22.25
2017-05-18T07:38:53.514Z,22.35
2017-05-18T07:41:24.312Z,22.37
2017-05-18T07:43:55.170Z,22.40
2017-05-18T07:46:25.951Z,22.46
2017-05-18T07:48:56.773Z,22.63
2017-05-18T07:51:27.542Z,22.69
2017-05-18T07:53:58.367Z,22.86
2017-05-18T07:56:29.230Z,22.97
2017-05-18T07:58:59.943Z,23.09
2017-05-18T08:01:30.730Z,23.23
2017-05-18T08:04:01.574Z,23.34
2017-05-18T08:06:33.869Z,23.42
2017-05-18T08:09:03.969Z,23.43
2017-05-18T08:11:34.808Z,23.58
2017-05-18T08:14:05.632Z,23.65
2017-05-18T08:16:36.405Z,23.76
2017-05-18T08:19:07.310Z,23.91
2017-05-18T08:21:38.149Z,24.00
2017-05-18T08:24:09.067Z,24.01
2017-05-18T08:26:39.837Z,24.00
2017-05-18T08:29:10.655Z,24.00
2017-05-18T08:31:41.429Z,24.01
2017-05-18T08:34:12.251Z,24.07
2017-05-18T08:36:43.063Z,24.08
2017-05-18T08:39:13.908Z,24.13
2017-05-18T08:41:44.732Z,24.21
2017-05-18T08:44:15.596Z,24.19
2017-05-18T08:46:46.396Z,24.29
2017-05-18T08:49:17.309Z,24.44
2017-05-18T08:51:48.097Z,24.57
2017-05-18T08:54:18.931Z,24.58
2017-05-18T08:56:49.703Z,24.71
2017-05-18T08:59:20.573Z,24.73
2017-05-18T09:01:51.386Z,24.82
2017-05-18T09:04:22.281Z,24.90
2017-05-18T09:06:53.058Z,24.79
2017-05-18T09:09:23.859Z,24.75
2017-05-18T09:11:54.693Z,24.82
2017-05-18T09:14:25.507Z,24.98
2017-05-18T09:16:56.306Z,25.07
2017-05-18T09:19:27.168Z,25.03
2017-05-18T09:21:57.937Z,25.11
2017-05-18T09:24:28.793Z,25.12
2017-05-18T09:26:59.674Z,25.10
2017-05-18T09:29:30.478Z,25.27
2017-05-18T09:32:01.275Z,25.40
2017-05-18T09:34:32.108Z,25.45
2017-05-18T09:37:02.709Z,25.52
2017-05-18T09:39:33.513Z,25.62
2017-05-18T09:42:04.305Z,25.71
2017-05-18T09:44:35.145Z,25.78
2017-05-18T09:47:05.963Z,25.88
2017-05-18T09:49:36.825Z,25.87
2017-05-18T09:52:07.596Z,25.96
2017-05-18T09:54:39.512Z,25.95
2017-05-18T09:57:10.281Z,26.00
2017-05-18T09:59:41.241Z,26.10
2017-05-18T10:02:12.059Z,26.23
2017-05-18T10:04:43.025Z,26.11
2017-05-18T10:07:13.781Z,26.14
2017-05-18T10:09:44.610Z,26.15
2017-05-18T10:12:15.383Z,26.24
2017-05-18T10:14:46.219Z,26.37
2017-05-18T10:17:17.006Z,26.39
2017-05-18T10:19:47.851Z,26.47
2017-05-18T10:22:18.620Z,26.41
2017-05-18T10:24:49.484Z,26.31
2017-05-18T10:27:20.258Z,26.45
2017-05-18T10:29:51.067Z,26.52
2017-05-18T10:32:21.863Z,26.60
2017-05-18T10:34:52.705Z,26.65
2017-05-18T10:37:23.481Z,26.61
2017-05-18T10:39:54.302Z,26.55
2017-05-18T10:42:25.075Z,26.48
2017-05-18T10:44:55.888Z,26.63
2017-05-18T10:47:26.657Z,26.63
2017-05-18T10:49:57.480Z,26.66
2017-05-18T10:52:28.258Z,26.65
2017-05-18T10:54:58.736Z,26.60
2017-05-18T10:57:29.530Z,26.76
2017-05-18T11:00:00.430Z,26.87
2017-05-18T11:02:31.238Z,26.83
2017-05-18T11:05:01.691Z,26.89
2017-05-18T11:07:32.473Z,27.00
2017-05-18T11:10:03.327Z,26.92
2017-05-18T11:12:33.733Z,27.04
2017-05-18T11:15:04.166Z,27.11
2017-05-18T11:17:34.935Z,27.20
2017-05-18T11:20:05.778Z,27.22
2017-05-18T11:22:36.558Z,27.26
2017-05-18T11:25:08.500Z,27.35
2017-05-18T11:27:39.397Z,27.37
2017-05-18T11:30:10.242Z,27.48
2017-05-18T11:32:41.057Z,27.48
2017-05-18T11:35:11.912Z,27.48
2017-05-18T11:37:42.747Z,27.49
2017-05-18T11:40:13.577Z,27.49
2017-05-18T11:42:44.357Z,27.36
2017-05-18T11:45:15.191Z,27.41
2017-05-18T11:47:45.963Z,27.33
2017-05-18T11:50:16.832Z,27.40
2017-05-18T11:52:47.649Z,27.37
2017-05-18T11:55:18.473Z,27.42
2017-05-18T11:57:49.291Z,27.45
2017-05-18T12:00:20.168Z,27.53
2017-05-18T12:02:50.946Z,27.61
2017-05-18T12:05:21.762Z,27.63
2017-05-18T12:07:52.564Z,27.62
2017-05-18T12:10:23.397Z,27.62
2017-05-18T12:12:54.164Z,27.63
2017-05-18T12:15:24.989Z,27.61
2017-05-18T12:17:55.762Z,27.63
2017-05-18T12:20:26.397Z,27.62
2017-05-18T12:22:57.178Z,27.70
2017-05-18T12:25:28.144Z,27.71
2017-05-18T12:27:59.005Z,27.72
2017-05-18T12:30:29.856Z,27.79
2017-05-18T12:33:00.276Z,27.85
2017-05-18T12:35:31.072Z,27.75
2017-05-18T12:38:01.852Z,27.75
2017-05-18T12:40:32.689Z,27.82
2017-05-18T12:43:03.534Z,27.87
2017-05-18T12:45:33.975Z,27.90
2017-05-18T12:48:04.776Z,27.85
2017-05-18T12:50:35.609Z,27.88
2017-05-18T12:53:06.374Z,27.96
2017-05-18T12:55:37.194Z,27.94
2017-05-18T12:58:07.985Z,27.96
2017-05-18T13:00:38.964Z,28.04
2017-05-18T13:03:09.773Z,28.06
2017-05-18T13:05:40.576Z,27.99
2017-05-18T13:08:11.342Z,28.00
2017-05-18T13:10:42.170Z,28.09
2017-05-18T13:13:12.957Z,28.21
2017-05-18T13:15:43.770Z,28.22
2017-05-18T13:18:14.549Z,28.24
2017-05-18T13:20:45.391Z,28.31
2017-05-18T13:23:16.809Z,28.28
2017-05-18T13:25:48.321Z,28.26
2017-05-18T13:28:19.084Z,28.27
2017-05-18T13:30:49.945Z,28.33
2017-05-18T13:33:20.709Z,28.33
2017-05-18T13:35:51.527Z,28.35
2017-05-18T13:39:24.776Z,28.30
2017-05-18T13:41:55.623Z,28.40
2017-05-18T13:44:26.414Z,28.48
2017-05-18T13:46:57.290Z,28.52
2017-05-18T13:49:28.949Z,28.46
2017-05-18T13:51:59.814Z,28.47
2017-05-18T13:54:30.602Z,28.50
2017-05-18T13:57:01.393Z,28.52
2017-05-18T13:59:32.176Z,28.48
2017-05-18T14:02:03.045Z,28.39
2017-05-18T14:04:33.817Z,28.36
2017-05-18T14:07:04.636Z,28.39
2017-05-18T14:09:35.415Z,28.38
2017-05-18T14:12:07.096Z,28.47
2017-05-18T14:14:37.877Z,28.37
2017-05-18T14:17:08.885Z,28.39
2017-05-18T14:19:39.693Z,28.46
2017-05-18T14:22:11.031Z,28.39
2017-05-18T14:24:42.501Z,28.43
2017-05-18T14:27:13.327Z,28.40
2017-05-18T14:29:44.097Z,28.29
2017-05-18T14:32:14.920Z,28.35
2017-05-18T14:34:45.678Z,28.36
2017-05-18T14:37:16.758Z,28.31
2017-05-18T14:39:47.618Z,28.33
2017-05-18T14:42:18.506Z,28.27
2017-05-18T14:44:49.279Z,28.30
2017-05-18T14:47:20.133Z,28.28
2017-05-18T14:49:50.918Z,28.29
2017-05-18T14:52:21.748Z,28.34
2017-05-18T14:54:52.521Z,28.35
2017-05-18T14:57:23.318Z,28.30
2017-05-18T14:59:54.085Z,28.31
2017-05-18T15:02:24.940Z,28.39
2017-05-18T15:04:56.447Z,28.36
2017-05-18T15:07:27.248Z,28.36
2017-05-18T15:09:59.852Z,28.45
2017-05-18T15:12:32.304Z,28.41
2017-05-18T15:15:05.402Z,28.45
2017-05-18T15:17:36.640Z,28.39
2017-05-18T15:20:08.245Z,28.31
2017-05-18T15:22:41.053Z,28.35
2017-05-18T15:25:14.030Z,28.34
2017-05-18T15:27:47.724Z,28.25
2017-05-18T15:30:20.198Z,28.27
2017-05-18T15:32:52.363Z,28.31
2017-05-18T15:35:26.249Z,28.30
2017-05-18T15:37:59.406Z,28.29
2017-05-18T15:40:33.088Z,28.28
2017-05-18T15:43:04.588Z,28.24
2017-05-18T15:48:44.360Z,28.21
2017-05-18T15:51:16.674Z,28.24
2017-05-18T15:53:48.636Z,28.25
2017-05-18T15:56:19.504Z,28.17
2017-05-18T15:58:50.275Z,28.14
2017-05-18T16:01:21.035Z,28.10
2017-05-18T16:03:51.815Z,28.11
2017-05-18T16:06:23.519Z,28.14
2017-05-18T16:08:55.933Z,28.12
2017-05-18T16:11:26.939Z,28.08
2017-05-18T16:14:00.208Z,28.05
2017-05-18T16:16:31.707Z,28.07
2017-05-18T16:19:04.070Z,27.97
2017-05-18T16:21:36.165Z,28.01
2017-05-18T16:24:08.601Z,28.00
2017-05-18T16:26:41.126Z,27.95
2017-05-18T16:29:13.657Z,27.97
2017-05-18T16:31:47.397Z,27.92
2017-05-18T16:34:20.128Z,27.90
2017-05-18T16:36:52.908Z,27.88
2017-05-18T16:39:25.720Z,27.81
2017-05-18T16:41:57.792Z,27.80
2017-05-18T16:44:30.163Z,27.81
2017-05-18T16:47:02.237Z,27.72
2017-05-18T16:49:34.360Z,27.59
2017-05-18T16:52:06.508Z,27.48
2017-05-18T16:54:39.490Z,27.35
2017-05-18T16:57:11.445Z,27.34
2017-05-18T16:59:45.910Z,27.23
2017-05-18T17:02:17.110Z,27.13
2017-05-18T17:04:48.653Z,27.05
2017-05-18T17:07:22.215Z,26.96
2017-05-18T17:09:55.557Z,26.90
2017-05-18T17:12:27.494Z,26.83
2017-05-18T17:14:59.851Z,26.78
2017-05-18T17:17:33.679Z,26.71
2017-05-18T17:20:06.009Z,26.67
2017-05-18T17:22:38.171Z,26.61
2017-05-18T17:25:09.856Z,26.55
2017-05-18T17:27:40.932Z,26.52
2017-05-18T17:30:11.740Z,26.45
2017-05-18T17:32:43.801Z,26.40
2017-05-18T17:35:14.585Z,26.38
2017-05-18T17:37:45.902Z,26.37
2017-05-18T17:40:16.759Z,26.29
2017-05-18T17:42:47.566Z,26.21
2017-05-18T17:45:18.366Z,26.12
2017-05-18T17:47:49.163Z,26.06
2017-05-18T17:50:20.055Z,26.03
2017-05-18T17:52:51.932Z,26.01
2017-05-18T17:55:23.579Z,25.96
2017-05-18T17:57:54.321Z,25.89
2017-05-18T18:00:25.104Z,25.87
2017-05-18T18:02:55.633Z,25.73
2017-05-18T18:05:26.443Z,25.71
2017-05-18T18:07:58.135Z,25.55
2017-05-18T18:10:31.327Z,25.45
2017-05-18T18:13:07.308Z,25.38
2017-05-18T18:15:41.799Z,25.28
2017-05-18T18:18:14.925Z,25.20
2017-05-18T18:20:48.804Z,25.05
2017-05-18T18:23:23.229Z,24.87
2017-05-18T18:25:57.631Z,24.89
2017-05-18T18:28:30.754Z,24.77
2017-05-18T18:31:01.551Z,24.65
2017-05-18T18:33:32.279Z,24.60
2017-05-18T18:36:03.064Z,24.53
2017-05-18T18:38:34.538Z,24.52
2017-05-18T18:41:05.294Z,24.45
2017-05-18T18:43:36.087Z,24.28
2017-05-18T18:46:06.952Z,24.35
2017-05-18T18:48:37.767Z,24.24
2017-05-18T18:51:08.557Z,24.27
2017-05-18T18:53:39.516Z,24.28
2017-05-18T18:56:11.190Z,24.23
2017-05-18T18:58:42.034Z,24.18
2017-05-18T19:01:12.814Z,24.05
2017-05-18T19:03:43.576Z,23.94
2017-05-18T19:06:14.478Z,23.92
2017-05-18T19:08:45.372Z,24.00
2017-05-18T19:11:16.304Z,24.02
2017-05-18T19:13:47.235Z,24.07
2017-05-18T19:16:18.339Z,24.05
2017-05-18T19:18:49.573Z,23.95
2017-05-18T19:21:20.375Z,24.01
2017-05-18T19:23:51.111Z,24.05
2017-05-18T19:26:22.783Z,24.01
2017-05-18T19:28:53.646Z,24.07
2017-05-18T19:31:24.601Z,24.02
2017-05-18T19:33:55.037Z,23.69
2017-05-18T19:36:25.867Z,23.78
2017-05-18T19:38:56.601Z,23.52
2017-05-18T19:41:28.463Z,23.63
2017-05-18T19:43:59.213Z,23.52
2017-05-18T19:46:30.139Z,23.68
2017-05-18T19:49:01.771Z,23.66
2017-05-18T19:51:33.450Z,23.57
2017-05-18T19:54:05.034Z,23.66
2017-05-18T19:56:37.636Z,23.63
2017-05-18T19:59:10.457Z,23.64
2017-05-18T20:01:41.982Z,23.61
2017-05-18T20:04:12.816Z,23.60
2017-05-18T20:06:43.766Z,23.59
2017-05-18T20:09:14.519Z,23.58
2017-05-18T20:11:45.294Z,23.64
2017-05-18T20:14:17.196Z,23.65
2017-05-18T20:16:48.022Z,23.67
2017-05-18T20:19:18.799Z,23.50
2017-05-18T20:21:49.627Z,23.55
2017-05-18T20:24:21.244Z,23.53
2017-05-18T20:26:52.842Z,23.47
2017-05-18T20:29:23.627Z,23.33
2017-05-18T20:31:54.515Z,23.26
2017-05-18T20:34:25.284Z,23.21
2017-05-18T20:36:56.067Z,23.18
2017-05-18T20:39:26.802Z,23.16
2017-05-18T20:41:57.573Z,23.22
2017-05-18T20:44:28.293Z,23.22
2017-05-18T20:46:59.072Z,23.07
2017-05-18T20:49:29.887Z,22.92
2017-05-18T20:52:02.595Z,22.86
2017-05-18T20:54:33.337Z,22.89
2017-05-18T20:57:04.939Z,22.75
2017-05-18T20:59:35.697Z,22.56
2017-05-18T21:02:06.505Z,22.40
2017-05-18T21:04:37.252Z,22.40
2017-05-18T21:07:08.797Z,22.21
2017-05-18T21:09:39.646Z,22.17
2017-05-18T21:12:10.470Z,22.06
2017-05-18T21:14:42.256Z,22.01
2017-05-18T21:17:13.007Z,21.88
2017-05-18T21:19:43.754Z,21.99
2017-05-18T21:22:14.565Z,21.98
2017-05-18T21:24:45.308Z,21.96
2017-05-18T21:27:16.077Z,22.12
2017-05-18T21:29:46.810Z,22.26
2017-05-18T21:32:17.686Z,22.25
2017-05-18T21:34:48.507Z,22.28
2017-05-18T21:37:19.271Z,22.29
2017-05-18T21:39:50.053Z,22.36
2017-05-18T21:42:20.840Z,22.49
2017-05-18T21:44:51.562Z,22.48
2017-05-18T21:47:22.322Z,22.50
2017-05-18T21:49:53.064Z,22.28
2017-05-18T21:52:23.852Z,22.34
2017-05-18T21:54:54.579Z,22.29
2017-05-18T21:57:25.338Z,22.25
2017-05-18T21:59:56.061Z,22.34
2017-05-18T22:02:26.850Z,22.40
2017-05-18T22:04:57.571Z,22.32
2017-05-18T22:07:28.388Z,22.33
2017-05-18T22:09:59.146Z,22.35
2017-05-18T22:12:31.295Z,22.28
2017-05-18T22:15:02.071Z,22.34
2017-05-18T22:17:32.869Z,22.30
2017-05-18T22:20:03.631Z,22.24
2017-05-18T22:22:34.411Z,22.23
2017-05-18T22:25:05.137Z,22.16
2017-05-18T22:27:35.888Z,22.23
2017-05-18T22:30:07.364Z,22.24
2017-05-18T22:32:38.139Z,22.15
2017-05-18T22:35:11.779Z,22.07
2017-05-18T22:37:42.598Z,22.08
2017-05-18T22:40:13.320Z,22.12
2017-05-18T22:42:44.130Z,22.14
2017-05-18T22:45:14.854Z,22.09
2017-05-18T22:47:47.117Z,22.06
2017-05-18T22:50:17.915Z,22.04
2017-05-18T22:52:48.829Z,22.05
2017-05-18T22:55:19.551Z,22.04
2017-05-18T22:57:50.320Z,22.00
2017-05-18T23:00:22.183Z,21.89
2017-05-18T23:02:53.488Z,21.88
2017-05-18T23:05:24.035Z,21.92
2017-05-18T23:07:54.856Z,21.88
2017-05-18T23:10:26.321Z,21.93
2017-05-18T23:12:57.095Z,21.89
2017-05-18T23:15:27.838Z,21.80
2017-05-18T23:17:58.595Z,21.78
2017-05-18T23:20:29.341Z,21.70
2017-05-18T23:23:00.116Z,21.69
2017-05-18T23:25:30.842Z,21.64
2017-05-18T23:28:01.623Z,21.57
2017-05-18T23:30:32.381Z,21.50
2017-05-18T23:33:03.198Z,21.52
2017-05-18T23:35:33.911Z,21.52
2017-05-18T23:38:04.667Z,21.48
2017-05-18T23:40:36.634Z,21.45
2017-05-18T23:43:08.247Z,21.38
2017-05-18T23:45:39.118Z,21.41
2017-05-18T23:48:09.884Z,21.43
2017-05-18T23:50:40.627Z,21.31
2017-05-18T23:53:11.398Z,21.33
2017-05-18T23:55:42.113Z,21.39
2017-05-18T23:58:13.013Z,21.32
